sensor_id;sensor_type;location;lat;lon;timestamp;P1;durP1;ratioP1;P2;durP2;ratioP2
40953;SDS011;26686;50.130;8.710;2022-10-19T00:00:28;15.43;;;12.02;;
40953;SDS011;26686;50.130;8.710;2022-10-19T00:05:30;12.95;;;11.07;;
40953;SDS011;26686;50.130;8.710;2022-10-19T00:10:31;12.30;;;10.13;;
40953;SDS011;26686;50.130;8.710;2022-10-19T00:15:32;13.98;;;10.63;;
40953;SDS011;26686;50.130;8.710;2022-10-19T00:20:34;13.75;;;11.43;;
40953;SDS011;26686;50.130;8.710;2022-10-19T00:25:36;12.50;;;11.20;;
40953;SDS011;26686;50.130;8.710;2022-10-19T00:30:38;14.68;;;10.60;;
40953;SDS011;26686;50.130;8.710;2022-10-19T00:35:39;16.45;;;12.07;;
40953;SDS011;26686;50.130;8.710;2022-10-19T00:40:41;13.05;;;11.15;;
40953;SDS011;26686;50.130;8.710;2022-10-19T00:45:42;13.27;;;9.75;;
40953;SDS011;26686;50.130;8.710;2022-10-19T00:50:44;14.05;;;10.35;;
40953;SDS011;26686;50.130;8.710;2022-10-19T00:55:47;16.95;;;11.48;;
40953;SDS011;26686;50.130;8.710;2022-10-19T01:00:48;13.23;;;11.27;;
40953;SDS011;26686;50.130;8.710;2022-10-19T01:05:50;13.38;;;10.85;;
40953;SDS011;26686;50.130;8.710;2022-10-19T01:11:05;15.85;;;11.95;;
40953;SDS011;26686;50.130;8.710;2022-10-19T01:16:35;16.60;;;11.32;;
40953;SDS011;26686;50.130;8.710;2022-10-19T01:27:06;17.00;;;11.18;;
40953;SDS011;26686;50.130;8.710;2022-10-19T01:37:55;17.10;;;11.25;;
40953;SDS011;26686;50.130;8.710;2022-10-19T01:43:10;13.82;;;10.73;;
40953;SDS011;26686;50.130;8.710;2022-10-19T01:48:19;15.75;;;12.27;;
40953;SDS011;26686;50.130;8.710;2022-10-19T01:53:23;14.52;;;11.25;;
40953;SDS011;26686;50.130;8.710;2022-10-19T01:58:30;15.52;;;11.57;;
40953;SDS011;26686;50.130;8.710;2022-10-19T02:03:35;14.45;;;10.50;;
40953;SDS011;26686;50.130;8.710;2022-10-19T02:08:39;16.40;;;11.68;;
40953;SDS011;26686;50.130;8.710;2022-10-19T02:13:47;16.33;;;11.40;;
40953;SDS011;26686;50.130;8.710;2022-10-19T02:18:53;14.40;;;11.90;;
40953;SDS011;26686;50.130;8.710;2022-10-19T02:23:55;15.50;;;11.55;;
40953;SDS011;26686;50.130;8.710;2022-10-19T02:28:57;17.52;;;11.75;;
40953;SDS011;26686;50.130;8.710;2022-10-19T02:33:58;16.38;;;11.38;;
40953;SDS011;26686;50.130;8.710;2022-10-19T02:39:00;12.90;;;10.82;;
40953;SDS011;26686;50.130;8.710;2022-10-19T02:44:06;16.27;;;11.00;;
40953;SDS011;26686;50.130;8.710;2022-10-19T02:49:13;14.95;;;10.70;;
40953;SDS011;26686;50.130;8.710;2022-10-19T02:54:15;14.52;;;10.85;;
40953;SDS011;26686;50.130;8.710;2022-10-19T02:59:16;17.02;;;11.15;;
40953;SDS011;26686;50.130;8.710;2022-10-19T03:04:18;15.68;;;11.07;;
40953;SDS011;26686;50.130;8.710;2022-10-19T03:09:19;16.90;;;10.90;;
40953;SDS011;26686;50.130;8.710;2022-10-19T03:14:21;16.80;;;10.73;;
40953;SDS011;26686;50.130;8.710;2022-10-19T03:19:22;14.88;;;11.30;;
40953;SDS011;26686;50.130;8.710;2022-10-19T03:24:24;12.82;;;10.57;;
40953;SDS011;26686;50.130;8.710;2022-10-19T03:29:25;19.52;;;12.35;;
40953;SDS011;26686;50.130;8.710;2022-10-19T03:34:26;17.20;;;11.35;;
40953;SDS011;26686;50.130;8.710;2022-10-19T03:39:27;14.90;;;12.50;;
40953;SDS011;26686;50.130;8.710;2022-10-19T03:44:29;17.20;;;11.52;;
40953;SDS011;26686;50.130;8.710;2022-10-19T03:49:30;15.68;;;11.63;;
40953;SDS011;26686;50.130;8.710;2022-10-19T03:54:33;15.75;;;12.32;;
40953;SDS011;26686;50.130;8.710;2022-10-19T03:59:34;14.13;;;10.90;;
40953;SDS011;26686;50.130;8.710;2022-10-19T04:04:35;16.38;;;12.50;;
40953;SDS011;26686;50.130;8.710;2022-10-19T04:09:37;16.70;;;11.23;;
40953;SDS011;26686;50.130;8.710;2022-10-19T04:14:39;16.00;;;12.27;;
40953;SDS011;26686;50.130;8.710;2022-10-19T04:19:57;16.73;;;11.48;;
40953;SDS011;26686;50.130;8.710;2022-10-19T04:24:58;17.83;;;11.48;;
40953;SDS011;26686;50.130;8.710;2022-10-19T04:30:00;12.23;;;10.93;;
40953;SDS011;26686;50.130;8.710;2022-10-19T04:35:01;14.55;;;10.77;;
40953;SDS011;26686;50.130;8.710;2022-10-19T04:40:03;16.27;;;12.50;;
40953;SDS011;26686;50.130;8.710;2022-10-19T04:45:06;18.60;;;11.68;;
40953;SDS011;26686;50.130;8.710;2022-10-19T04:50:07;15.35;;;12.13;;
40953;SDS011;26686;50.130;8.710;2022-10-19T04:55:09;18.70;;;10.95;;
40953;SDS011;26686;50.130;8.710;2022-10-19T05:00:10;11.95;;;10.25;;
40953;SDS011;26686;50.130;8.710;2022-10-19T05:05:12;12.77;;;11.02;;
40953;SDS011;26686;50.130;8.710;2022-10-19T05:10:14;12.85;;;10.25;;
40953;SDS011;26686;50.130;8.710;2022-10-19T05:15:15;14.45;;;10.38;;
40953;SDS011;26686;50.130;8.710;2022-10-19T05:20:17;13.45;;;9.82;;
40953;SDS011;26686;50.130;8.710;2022-10-19T05:25:18;12.98;;;10.27;;
40953;SDS011;26686;50.130;8.710;2022-10-19T05:30:19;13.50;;;10.60;;
40953;SDS011;26686;50.130;8.710;2022-10-19T05:35:22;13.82;;;9.95;;
40953;SDS011;26686;50.130;8.710;2022-10-19T05:40:23;11.60;;;8.88;;
40953;SDS011;26686;50.130;8.710;2022-10-19T05:45:24;12.70;;;9.85;;
40953;SDS011;26686;50.130;8.710;2022-10-19T05:50:25;11.38;;;9.60;;
40953;SDS011;26686;50.130;8.710;2022-10-19T05:55:27;11.90;;;9.18;;
40953;SDS011;26686;50.130;8.710;2022-10-19T06:00:28;11.48;;;8.93;;
40953;SDS011;26686;50.130;8.710;2022-10-19T06:05:30;14.10;;;9.63;;
40953;SDS011;26686;50.130;8.710;2022-10-19T06:10:31;10.43;;;7.63;;
40953;SDS011;26686;50.130;8.710;2022-10-19T06:15:33;10.10;;;7.72;;
40953;SDS011;26686;50.130;8.710;2022-10-19T06:20:37;9.43;;;7.53;;
40953;SDS011;26686;50.130;8.710;2022-10-19T06:25:39;10.38;;;7.35;;
40953;SDS011;26686;50.130;8.710;2022-10-19T06:30:41;10.63;;;7.35;;
40953;SDS011;26686;50.130;8.710;2022-10-19T06:35:42;9.55;;;6.85;;
40953;SDS011;26686;50.130;8.710;2022-10-19T06:40:44;11.65;;;7.57;;
40953;SDS011;26686;50.130;8.710;2022-10-19T06:45:45;8.98;;;7.10;;
40953;SDS011;26686;50.130;8.710;2022-10-19T06:50:54;8.40;;;5.60;;
40953;SDS011;26686;50.130;8.710;2022-10-19T06:56:00;7.47;;;6.45;;
40953;SDS011;26686;50.130;8.710;2022-10-19T07:01:04;7.65;;;6.20;;
40953;SDS011;26686;50.130;8.710;2022-10-19T07:06:11;6.25;;;5.57;;
40953;SDS011;26686;50.130;8.710;2022-10-19T07:11:17;8.75;;;5.82;;
40953;SDS011;26686;50.130;8.710;2022-10-19T07:16:19;6.30;;;5.18;;
40953;SDS011;26686;50.130;8.710;2022-10-19T07:21:22;8.48;;;5.97;;
40953;SDS011;26686;50.130;8.710;2022-10-19T07:26:24;7.15;;;5.15;;
40953;SDS011;26686;50.130;8.710;2022-10-19T07:31:28;6.35;;;5.13;;
40953;SDS011;26686;50.130;8.710;2022-10-19T07:36:31;5.38;;;4.82;;
40953;SDS011;26686;50.130;8.710;2022-10-19T07:41:34;8.07;;;6.18;;
40953;SDS011;26686;50.130;8.710;2022-10-19T07:46:36;6.45;;;5.32;;
40953;SDS011;26686;50.130;8.710;2022-10-19T07:51:38;8.52;;;5.55;;
40953;SDS011;26686;50.130;8.710;2022-10-19T07:56:40;8.40;;;5.47;;
40953;SDS011;26686;50.130;8.710;2022-10-19T08:01:42;7.57;;;5.05;;
40953;SDS011;26686;50.130;8.710;2022-10-19T08:06:44;6.03;;;5.13;;
40953;SDS011;26686;50.130;8.710;2022-10-19T08:11:46;6.90;;;5.28;;
40953;SDS011;26686;50.130;8.710;2022-10-19T08:16:47;7.45;;;4.97;;
40953;SDS011;26686;50.130;8.710;2022-10-19T08:21:48;6.13;;;5.38;;
40953;SDS011;26686;50.130;8.710;2022-10-19T08:26:50;7.32;;;5.10;;
40953;SDS011;26686;50.130;8.710;2022-10-19T08:31:52;6.90;;;5.40;;
40953;SDS011;26686;50.130;8.710;2022-10-19T08:36:53;6.43;;;5.18;;
40953;SDS011;26686;50.130;8.710;2022-10-19T08:42:04;8.60;;;5.70;;
40953;SDS011;26686;50.130;8.710;2022-10-19T08:47:30;8.18;;;5.13;;
40953;SDS011;26686;50.130;8.710;2022-10-19T08:52:39;7.72;;;5.43;;
40953;SDS011;26686;50.130;8.710;2022-10-19T08:57:58;9.20;;;5.05;;
40953;SDS011;26686;50.130;8.710;2022-10-19T09:03:25;7.05;;;5.40;;
40953;SDS011;26686;50.130;8.710;2022-10-19T09:08:55;7.32;;;5.47;;
40953;SDS011;26686;50.130;8.710;2022-10-19T09:14:04;9.75;;;5.10;;
40953;SDS011;26686;50.130;8.710;2022-10-19T09:19:20;6.68;;;4.57;;
40953;SDS011;26686;50.130;8.710;2022-10-19T09:24:37;7.13;;;4.63;;
40953;SDS011;26686;50.130;8.710;2022-10-19T09:30:00;5.15;;;4.68;;
40953;SDS011;26686;50.130;8.710;2022-10-19T09:35:06;9.37;;;4.73;;
40953;SDS011;26686;50.130;8.710;2022-10-19T09:40:24;8.30;;;5.32;;
40953;SDS011;26686;50.130;8.710;2022-10-19T09:45:35;7.25;;;4.40;;
40953;SDS011;26686;50.130;8.710;2022-10-19T09:50:44;6.70;;;4.00;;
40953;SDS011;26686;50.130;8.710;2022-10-19T09:56:36;8.57;;;4.78;;
40953;SDS011;26686;50.130;8.710;2022-10-19T10:01:30;5.70;;;3.47;;
40953;SDS011;26686;50.130;8.710;2022-10-19T10:06:43;4.60;;;3.30;;
40953;SDS011;26686;50.130;8.710;2022-10-19T10:11:48;6.45;;;3.58;;
40953;SDS011;26686;50.130;8.710;2022-10-19T10:16:55;4.22;;;3.33;;
40953;SDS011;26686;50.130;8.710;2022-10-19T10:22:04;5.78;;;3.53;;
40953;SDS011;26686;50.130;8.710;2022-10-19T10:27:05;4.50;;;3.42;;
40953;SDS011;26686;50.130;8.710;2022-10-19T10:32:24;6.63;;;3.75;;
40953;SDS011;26686;50.130;8.710;2022-10-19T10:42:40;4.97;;;3.88;;
40953;SDS011;26686;50.130;8.710;2022-10-19T10:47:45;4.80;;;3.63;;
40953;SDS011;26686;50.130;8.710;2022-10-19T10:52:58;6.13;;;3.70;;
40953;SDS011;26686;50.130;8.710;2022-10-19T11:03:24;6.75;;;5.00;;
40953;SDS011;26686;50.130;8.710;2022-10-19T11:19:39;6.85;;;4.15;;
40953;SDS011;26686;50.130;8.710;2022-10-19T11:30:10;6.30;;;4.00;;
40953;SDS011;26686;50.130;8.710;2022-10-19T11:57:42;6.63;;;4.03;;
40953;SDS011;26686;50.130;8.710;2022-10-19T12:14:00;5.03;;;4.53;;
40953;SDS011;26686;50.130;8.710;2022-10-19T12:19:05;5.88;;;4.40;;
40953;SDS011;26686;50.130;8.710;2022-10-19T12:24:13;5.72;;;4.45;;
40953;SDS011;26686;50.130;8.710;2022-10-19T12:29:25;8.95;;;5.07;;
40953;SDS011;26686;50.130;8.710;2022-10-19T12:50:10;4.97;;;4.38;;
40953;SDS011;26686;50.130;8.710;2022-10-19T13:00:27;4.65;;;4.18;;
40953;SDS011;26686;50.130;8.710;2022-10-19T13:05:32;5.55;;;4.50;;
40953;SDS011;26686;50.130;8.710;2022-10-19T13:10:35;5.07;;;3.72;;
40953;SDS011;26686;50.130;8.710;2022-10-19T13:25:41;5.50;;;4.07;;
40953;SDS011;26686;50.130;8.710;2022-10-19T13:35:44;4.57;;;4.18;;
40953;SDS011;26686;50.130;8.710;2022-10-19T14:13:18;4.07;;;3.20;;
40953;SDS011;26686;50.130;8.710;2022-10-19T14:23:32;5.65;;;3.67;;
40953;SDS011;26686;50.130;8.710;2022-10-19T14:28:35;4.50;;;3.25;;
40953;SDS011;26686;50.130;8.710;2022-10-19T14:33:38;6.57;;;3.47;;
40953;SDS011;26686;50.130;8.710;2022-10-19T14:38:41;6.20;;;3.65;;
40953;SDS011;26686;50.130;8.710;2022-10-19T14:43:43;6.00;;;4.07;;
40953;SDS011;26686;50.130;8.710;2022-10-19T14:48:46;4.25;;;3.22;;
40953;SDS011;26686;50.130;8.710;2022-10-19T14:53:50;4.57;;;3.15;;
40953;SDS011;26686;50.130;8.710;2022-10-19T14:58:55;3.65;;;3.35;;
40953;SDS011;26686;50.130;8.710;2022-10-19T15:04:07;5.93;;;3.27;;
40953;SDS011;26686;50.130;8.710;2022-10-19T15:09:13;4.40;;;3.60;;
40953;SDS011;26686;50.130;8.710;2022-10-19T15:14:47;4.25;;;3.88;;
40953;SDS011;26686;50.130;8.710;2022-10-19T15:19:48;5.00;;;4.20;;
40953;SDS011;26686;50.130;8.710;2022-10-19T15:24:55;5.60;;;4.63;;
40953;SDS011;26686;50.130;8.710;2022-10-19T15:30:00;5.40;;;4.78;;
40953;SDS011;26686;50.130;8.710;2022-10-19T15:35:09;6.75;;;6.00;;
40953;SDS011;26686;50.130;8.710;2022-10-19T15:40:21;7.05;;;5.35;;
40953;SDS011;26686;50.130;8.710;2022-10-19T15:50:37;9.13;;;6.13;;
40953;SDS011;26686;50.130;8.710;2022-10-19T15:55:42;6.55;;;5.95;;
40953;SDS011;26686;50.130;8.710;2022-10-19T16:00:44;6.97;;;6.25;;
40953;SDS011;26686;50.130;8.710;2022-10-19T16:05:45;7.57;;;6.03;;
40953;SDS011;26686;50.130;8.710;2022-10-19T16:10:47;9.32;;;6.45;;
40953;SDS011;26686;50.130;8.710;2022-10-19T16:15:49;5.70;;;5.10;;
40953;SDS011;26686;50.130;8.710;2022-10-19T16:21:10;6.13;;;5.53;;
40953;SDS011;26686;50.130;8.710;2022-10-19T16:26:14;7.10;;;6.40;;
40953;SDS011;26686;50.130;8.710;2022-10-19T16:31:17;7.05;;;6.35;;
40953;SDS011;26686;50.130;8.710;2022-10-19T16:36:18;6.90;;;6.30;;
40953;SDS011;26686;50.130;8.710;2022-10-19T16:41:20;9.10;;;7.60;;
40953;SDS011;26686;50.130;8.710;2022-10-19T16:46:22;7.57;;;6.90;;
40953;SDS011;26686;50.130;8.710;2022-10-19T16:51:27;7.88;;;7.13;;
40953;SDS011;26686;50.130;8.710;2022-10-19T16:56:34;8.55;;;7.15;;
40953;SDS011;26686;50.130;8.710;2022-10-19T17:01:36;7.68;;;6.90;;
40953;SDS011;26686;50.130;8.710;2022-10-19T17:06:38;8.75;;;6.97;;
40953;SDS011;26686;50.130;8.710;2022-10-19T17:11:40;8.95;;;7.38;;
40953;SDS011;26686;50.130;8.710;2022-10-19T17:16:42;9.20;;;8.30;;
40953;SDS011;26686;50.130;8.710;2022-10-19T17:21:43;8.52;;;7.65;;
40953;SDS011;26686;50.130;8.710;2022-10-19T17:26:44;8.90;;;7.40;;
40953;SDS011;26686;50.130;8.710;2022-10-19T17:31:46;8.55;;;7.07;;
40953;SDS011;26686;50.130;8.710;2022-10-19T17:36:48;7.22;;;6.53;;
40953;SDS011;26686;50.130;8.710;2022-10-19T17:41:50;7.40;;;6.60;;
40953;SDS011;26686;50.130;8.710;2022-10-19T17:46:52;7.55;;;6.70;;
40953;SDS011;26686;50.130;8.710;2022-10-19T17:51:54;7.15;;;5.85;;
40953;SDS011;26686;50.130;8.710;2022-10-19T17:56:55;8.25;;;6.85;;
40953;SDS011;26686;50.130;8.710;2022-10-19T18:01:57;7.57;;;6.88;;
40953;SDS011;26686;50.130;8.710;2022-10-19T18:06:58;7.82;;;6.30;;
40953;SDS011;26686;50.130;8.710;2022-10-19T18:12:00;7.30;;;6.60;;
40953;SDS011;26686;50.130;8.710;2022-10-19T18:17:07;11.85;;;8.55;;
40953;SDS011;26686;50.130;8.710;2022-10-19T18:22:08;8.40;;;7.32;;
40953;SDS011;26686;50.130;8.710;2022-10-19T18:27:10;8.35;;;7.55;;
40953;SDS011;26686;50.130;8.710;2022-10-19T18:32:12;11.15;;;7.45;;
40953;SDS011;26686;50.130;8.710;2022-10-19T18:37:14;7.85;;;7.15;;
40953;SDS011;26686;50.130;8.710;2022-10-19T18:42:15;7.30;;;6.57;;
40953;SDS011;26686;50.130;8.710;2022-10-19T18:47:17;8.75;;;7.18;;
40953;SDS011;26686;50.130;8.710;2022-10-19T18:52:19;7.35;;;6.65;;
40953;SDS011;26686;50.130;8.710;2022-10-19T18:57:20;8.07;;;7.38;;
40953;SDS011;26686;50.130;8.710;2022-10-19T19:02:21;7.53;;;6.85;;
40953;SDS011;26686;50.130;8.710;2022-10-19T19:07:35;8.57;;;7.57;;
40953;SDS011;26686;50.130;8.710;2022-10-19T19:12:37;10.40;;;7.30;;
40953;SDS011;26686;50.130;8.710;2022-10-19T19:17:38;8.35;;;7.07;;
40953;SDS011;26686;50.130;8.710;2022-10-19T19:22:40;8.82;;;7.20;;
40953;SDS011;26686;50.130;8.710;2022-10-19T19:27:41;8.20;;;7.50;;
40953;SDS011;26686;50.130;8.710;2022-10-19T19:32:42;8.57;;;6.65;;
40953;SDS011;26686;50.130;8.710;2022-10-19T19:37:44;8.77;;;6.97;;
40953;SDS011;26686;50.130;8.710;2022-10-19T19:42:45;8.77;;;6.68;;
40953;SDS011;26686;50.130;8.710;2022-10-19T19:47:46;9.10;;;7.72;;
40953;SDS011;26686;50.130;8.710;2022-10-19T19:52:48;8.73;;;6.70;;
40953;SDS011;26686;50.130;8.710;2022-10-19T19:57:49;8.93;;;7.60;;
40953;SDS011;26686;50.130;8.710;2022-10-19T20:02:54;9.07;;;8.13;;
40953;SDS011;26686;50.130;8.710;2022-10-19T20:07:57;8.93;;;7.73;;
40953;SDS011;26686;50.130;8.710;2022-10-19T20:12:58;10.02;;;7.05;;
40953;SDS011;26686;50.130;8.710;2022-10-19T20:17:59;10.43;;;7.50;;
40953;SDS011;26686;50.130;8.710;2022-10-19T20:23:01;8.82;;;8.02;;
40953;SDS011;26686;50.130;8.710;2022-10-19T20:28:02;9.07;;;7.82;;
40953;SDS011;26686;50.130;8.710;2022-10-19T20:33:05;8.10;;;7.30;;
40953;SDS011;26686;50.130;8.710;2022-10-19T20:38:06;9.13;;;7.30;;
40953;SDS011;26686;50.130;8.710;2022-10-19T20:43:08;9.35;;;6.50;;
40953;SDS011;26686;50.130;8.710;2022-10-19T20:48:09;8.85;;;6.82;;
40953;SDS011;26686;50.130;8.710;2022-10-19T20:53:10;9.23;;;6.88;;
40953;SDS011;26686;50.130;8.710;2022-10-19T20:58:12;6.53;;;5.68;;
40953;SDS011;26686;50.130;8.710;2022-10-19T21:03:13;7.03;;;6.05;;
40953;SDS011;26686;50.130;8.710;2022-10-19T21:08:15;7.00;;;6.13;;
40953;SDS011;26686;50.130;8.710;2022-10-19T21:13:16;8.85;;;7.00;;
40953;SDS011;26686;50.130;8.710;2022-10-19T21:18:18;6.97;;;6.28;;
40953;SDS011;26686;50.130;8.710;2022-10-19T21:23:19;8.50;;;5.97;;
40953;SDS011;26686;50.130;8.710;2022-10-19T21:28:21;8.35;;;6.95;;
40953;SDS011;26686;50.130;8.710;2022-10-19T21:33:25;16.23;;;6.97;;
40953;SDS011;26686;50.130;8.710;2022-10-19T21:43:28;6.95;;;5.90;;
40953;SDS011;26686;50.130;8.710;2022-10-19T21:48:30;8.02;;;6.40;;
40953;SDS011;26686;50.130;8.710;2022-10-19T21:53:32;6.68;;;6.03;;
40953;SDS011;26686;50.130;8.710;2022-10-19T21:58:34;7.75;;;5.72;;
40953;SDS011;26686;50.130;8.710;2022-10-19T22:03:35;8.55;;;5.93;;
40953;SDS011;26686;50.130;8.710;2022-10-19T22:08:37;6.63;;;5.60;;
40953;SDS011;26686;50.130;8.710;2022-10-19T22:13:39;5.68;;;4.70;;
40953;SDS011;26686;50.130;8.710;2022-10-19T22:18:41;7.32;;;5.60;;
40953;SDS011;26686;50.130;8.710;2022-10-19T22:23:43;6.30;;;4.88;;
40953;SDS011;26686;50.130;8.710;2022-10-19T22:28:45;7.35;;;5.20;;
40953;SDS011;26686;50.130;8.710;2022-10-19T22:33:46;7.32;;;5.25;;
40953;SDS011;26686;50.130;8.710;2022-10-19T22:38:48;6.45;;;5.05;;
40953;SDS011;26686;50.130;8.710;2022-10-19T22:43:49;4.88;;;4.38;;
40953;SDS011;26686;50.130;8.710;2022-10-19T22:48:50;6.32;;;5.72;;
40953;SDS011;26686;50.130;8.710;2022-10-19T22:53:51;7.10;;;5.45;;
40953;SDS011;26686;50.130;8.710;2022-10-19T22:58:56;6.22;;;5.53;;
40953;SDS011;26686;50.130;8.710;2022-10-19T23:03:58;8.38;;;5.05;;
40953;SDS011;26686;50.130;8.710;2022-10-19T23:09:00;5.82;;;5.20;;
40953;SDS011;26686;50.130;8.710;2022-10-19T23:14:01;7.22;;;5.15;;
40953;SDS011;26686;50.130;8.710;2022-10-19T23:19:03;9.18;;;5.10;;
40953;SDS011;26686;50.130;8.710;2022-10-19T23:24:04;8.75;;;4.53;;
40953;SDS011;26686;50.130;8.710;2022-10-19T23:29:05;6.35;;;4.85;;
40953;SDS011;26686;50.130;8.710;2022-10-19T23:34:07;6.43;;;4.75;;
40953;SDS011;26686;50.130;8.710;2022-10-19T23:39:08;5.30;;;4.47;;
40953;SDS011;26686;50.130;8.710;2022-10-19T23:44:09;5.10;;;4.40;;
40953;SDS011;26686;50.130;8.710;2022-10-19T23:49:10;8.10;;;4.78;;
40953;SDS011;26686;50.130;8.710;2022-10-19T23:54:12;5.15;;;4.55;;
40953;SDS011;26686;50.130;8.710;2022-10-19T23:59:13;7.97;;;5.30;;
